sensor_id;sensor_type;location;lat;lon;timestamp;P1;durP1;ratioP1;P2;durP2;ratioP2
67074;SDS011;53990;50.334;18.640;2022-12-18T00:01:25;57.30;;;25.30;;
67074;SDS011;53990;50.334;18.640;2022-12-18T00:03:55;66.30;;;27.60;;
67074;SDS011;53990;50.334;18.640;2022-12-18T00:06:26;62.20;;;25.70;;
67074;SDS011;53990;50.334;18.640;2022-12-18T00:08:56;66.10;;;28.50;;
67074;SDS011;53990;50.334;18.640;2022-12-18T00:11:25;69.80;;;28.30;;
67074;SDS011;53990;50.334;18.640;2022-12-18T00:13:54;66.70;;;25.60;;
67074;SDS011;53990;50.334;18.640;2022-12-18T00:16:23;60.60;;;25.20;;
67074;SDS011;53990;50.334;18.640;2022-12-18T00:18:53;64.70;;;26.60;;
67074;SDS011;53990;50.334;18.640;2022-12-18T00:21:21;61.20;;;25.80;;
67074;SDS011;53990;50.334;18.640;2022-12-18T00:23:49;65.00;;;25.60;;
67074;SDS011;53990;50.334;18.640;2022-12-18T00:26:18;73.10;;;29.90;;
67074;SDS011;53990;50.334;18.640;2022-12-18T00:28:46;73.10;;;29.00;;
67074;SDS011;53990;50.334;18.640;2022-12-18T00:31:15;58.10;;;26.30;;
67074;SDS011;53990;50.334;18.640;2022-12-18T00:33:43;85.70;;;30.50;;
67074;SDS011;53990;50.334;18.640;2022-12-18T00:36:14;85.00;;;30.60;;
67074;SDS011;53990;50.334;18.640;2022-12-18T00:38:41;111.10;;;34.50;;
67074;SDS011;53990;50.334;18.640;2022-12-18T00:41:11;92.10;;;31.80;;
67074;SDS011;53990;50.334;18.640;2022-12-18T00:43:39;63.00;;;26.40;;
67074;SDS011;53990;50.334;18.640;2022-12-18T00:46:06;68.40;;;27.30;;
67074;SDS011;53990;50.334;18.640;2022-12-18T00:48:33;94.20;;;32.10;;
67074;SDS011;53990;50.334;18.640;2022-12-18T00:51:01;77.10;;;31.90;;
67074;SDS011;53990;50.334;18.640;2022-12-18T00:53:28;71.80;;;26.80;;
67074;SDS011;53990;50.334;18.640;2022-12-18T00:55:55;77.70;;;28.10;;
67074;SDS011;53990;50.334;18.640;2022-12-18T00:58:22;70.40;;;27.90;;
67074;SDS011;53990;50.334;18.640;2022-12-18T01:00:49;74.50;;;30.60;;
67074;SDS011;53990;50.334;18.640;2022-12-18T01:03:17;70.80;;;29.60;;
67074;SDS011;53990;50.334;18.640;2022-12-18T01:05:44;69.30;;;28.60;;
67074;SDS011;53990;50.334;18.640;2022-12-18T01:08:11;64.80;;;29.90;;
67074;SDS011;53990;50.334;18.640;2022-12-18T01:10:41;76.70;;;32.70;;
67074;SDS011;53990;50.334;18.640;2022-12-18T01:13:09;61.20;;;26.70;;
67074;SDS011;53990;50.334;18.640;2022-12-18T01:15:36;66.90;;;30.50;;
67074;SDS011;53990;50.334;18.640;2022-12-18T01:18:03;67.90;;;29.00;;
67074;SDS011;53990;50.334;18.640;2022-12-18T01:20:31;78.20;;;31.10;;
67074;SDS011;53990;50.334;18.640;2022-12-18T01:22:58;78.50;;;28.90;;
67074;SDS011;53990;50.334;18.640;2022-12-18T01:25:25;64.50;;;28.00;;
67074;SDS011;53990;50.334;18.640;2022-12-18T01:27:52;88.90;;;35.20;;
67074;SDS011;53990;50.334;18.640;2022-12-18T01:30:20;74.20;;;30.50;;
67074;SDS011;53990;50.334;18.640;2022-12-18T01:32:47;66.30;;;28.30;;
67074;SDS011;53990;50.334;18.640;2022-12-18T01:35:14;68.40;;;29.20;;
67074;SDS011;53990;50.334;18.640;2022-12-18T01:37:42;71.70;;;29.20;;
67074;SDS011;53990;50.334;18.640;2022-12-18T01:40:09;78.10;;;29.40;;
67074;SDS011;53990;50.334;18.640;2022-12-18T01:42:36;64.80;;;26.40;;
67074;SDS011;53990;50.334;18.640;2022-12-18T01:45:27;65.90;;;28.30;;
67074;SDS011;53990;50.334;18.640;2022-12-18T01:47:56;75.80;;;29.50;;
67074;SDS011;53990;50.334;18.640;2022-12-18T01:50:39;71.80;;;26.70;;
67074;SDS011;53990;50.334;18.640;2022-12-18T01:53:15;59.60;;;26.20;;
67074;SDS011;53990;50.334;18.640;2022-12-18T01:58:37;66.40;;;25.40;;
67074;SDS011;53990;50.334;18.640;2022-12-18T02:01:07;58.60;;;24.90;;
67074;SDS011;53990;50.334;18.640;2022-12-18T02:03:34;65.50;;;26.20;;
67074;SDS011;53990;50.334;18.640;2022-12-18T02:08:53;62.50;;;27.10;;
67074;SDS011;53990;50.334;18.640;2022-12-18T02:19:37;58.80;;;24.00;;
67074;SDS011;53990;50.334;18.640;2022-12-18T02:25:13;70.90;;;29.10;;
67074;SDS011;53990;50.334;18.640;2022-12-18T02:27:45;69.50;;;27.40;;
67074;SDS011;53990;50.334;18.640;2022-12-18T02:30:13;70.20;;;27.10;;
67074;SDS011;53990;50.334;18.640;2022-12-18T02:32:44;64.50;;;26.90;;
67074;SDS011;53990;50.334;18.640;2022-12-18T02:35:16;61.60;;;25.50;;
67074;SDS011;53990;50.334;18.640;2022-12-18T02:37:46;69.90;;;26.80;;
67074;SDS011;53990;50.334;18.640;2022-12-18T02:40:15;72.40;;;27.70;;
67074;SDS011;53990;50.334;18.640;2022-12-18T02:42:44;59.80;;;25.50;;
67074;SDS011;53990;50.334;18.640;2022-12-18T02:45:11;61.70;;;26.00;;
67074;SDS011;53990;50.334;18.640;2022-12-18T02:47:41;57.50;;;24.20;;
67074;SDS011;53990;50.334;18.640;2022-12-18T03:06:26;64.50;;;26.70;;
67074;SDS011;53990;50.334;18.640;2022-12-18T03:09:06;65.90;;;26.10;;
67074;SDS011;53990;50.334;18.640;2022-12-18T03:11:37;65.20;;;27.10;;
67074;SDS011;53990;50.334;18.640;2022-12-18T03:14:25;70.10;;;28.80;;
67074;SDS011;53990;50.334;18.640;2022-12-18T03:16:55;69.80;;;29.30;;
67074;SDS011;53990;50.334;18.640;2022-12-18T03:19:26;69.90;;;29.60;;
67074;SDS011;53990;50.334;18.640;2022-12-18T03:21:56;71.90;;;28.20;;
67074;SDS011;53990;50.334;18.640;2022-12-18T03:24:26;73.60;;;28.30;;
67074;SDS011;53990;50.334;18.640;2022-12-18T03:27:00;72.10;;;28.30;;
67074;SDS011;53990;50.334;18.640;2022-12-18T03:29:34;65.50;;;28.30;;
67074;SDS011;53990;50.334;18.640;2022-12-18T03:32:07;70.90;;;28.30;;
67074;SDS011;53990;50.334;18.640;2022-12-18T03:34:38;63.50;;;26.70;;
67074;SDS011;53990;50.334;18.640;2022-12-18T03:37:06;74.10;;;27.70;;
67074;SDS011;53990;50.334;18.640;2022-12-18T03:39:34;67.00;;;27.60;;
67074;SDS011;53990;50.334;18.640;2022-12-18T03:42:10;73.00;;;28.50;;
67074;SDS011;53990;50.334;18.640;2022-12-18T03:50:22;65.20;;;27.10;;
67074;SDS011;53990;50.334;18.640;2022-12-18T03:52:58;76.50;;;30.70;;
67074;SDS011;53990;50.334;18.640;2022-12-18T03:55:28;77.80;;;29.90;;
67074;SDS011;53990;50.334;18.640;2022-12-18T03:57:58;66.80;;;28.40;;
67074;SDS011;53990;50.334;18.640;2022-12-18T04:00:27;78.80;;;30.80;;
67074;SDS011;53990;50.334;18.640;2022-12-18T04:02:56;75.60;;;29.60;;
67074;SDS011;53990;50.334;18.640;2022-12-18T04:05:25;68.10;;;27.70;;
67074;SDS011;53990;50.334;18.640;2022-12-18T04:07:54;71.50;;;30.50;;
67074;SDS011;53990;50.334;18.640;2022-12-18T04:10:21;76.60;;;30.10;;
67074;SDS011;53990;50.334;18.640;2022-12-18T04:12:49;71.10;;;29.50;;
67074;SDS011;53990;50.334;18.640;2022-12-18T04:15:16;73.70;;;29.70;;
67074;SDS011;53990;50.334;18.640;2022-12-18T04:17:48;69.50;;;30.10;;
67074;SDS011;53990;50.334;18.640;2022-12-18T04:20:16;69.20;;;27.80;;
67074;SDS011;53990;50.334;18.640;2022-12-18T04:22:43;76.60;;;30.10;;
67074;SDS011;53990;50.334;18.640;2022-12-18T04:25:11;78.30;;;29.60;;
67074;SDS011;53990;50.334;18.640;2022-12-18T04:27:38;68.80;;;28.50;;
67074;SDS011;53990;50.334;18.640;2022-12-18T04:30:06;76.70;;;30.00;;
67074;SDS011;53990;50.334;18.640;2022-12-18T04:32:34;74.00;;;29.20;;
67074;SDS011;53990;50.334;18.640;2022-12-18T04:35:01;79.10;;;30.70;;
67074;SDS011;53990;50.334;18.640;2022-12-18T04:37:29;74.00;;;29.40;;
67074;SDS011;53990;50.334;18.640;2022-12-18T04:39:56;75.40;;;30.30;;
67074;SDS011;53990;50.334;18.640;2022-12-18T04:42:23;76.60;;;29.30;;
67074;SDS011;53990;50.334;18.640;2022-12-18T04:44:50;70.40;;;29.80;;
67074;SDS011;53990;50.334;18.640;2022-12-18T04:47:17;68.20;;;28.90;;
67074;SDS011;53990;50.334;18.640;2022-12-18T04:49:45;72.50;;;29.20;;
67074;SDS011;53990;50.334;18.640;2022-12-18T04:52:12;69.20;;;28.90;;
67074;SDS011;53990;50.334;18.640;2022-12-18T04:54:39;66.90;;;27.20;;
67074;SDS011;53990;50.334;18.640;2022-12-18T04:57:06;64.40;;;26.30;;
67074;SDS011;53990;50.334;18.640;2022-12-18T04:59:34;65.30;;;27.30;;
67074;SDS011;53990;50.334;18.640;2022-12-18T05:02:01;66.00;;;27.10;;
67074;SDS011;53990;50.334;18.640;2022-12-18T05:04:28;67.40;;;27.80;;
67074;SDS011;53990;50.334;18.640;2022-12-18T05:06:55;67.00;;;27.90;;
67074;SDS011;53990;50.334;18.640;2022-12-18T05:09:23;74.00;;;30.10;;
67074;SDS011;53990;50.334;18.640;2022-12-18T05:11:50;61.60;;;26.90;;
67074;SDS011;53990;50.334;18.640;2022-12-18T05:14:17;71.00;;;28.90;;
67074;SDS011;53990;50.334;18.640;2022-12-18T05:16:44;66.50;;;26.40;;
67074;SDS011;53990;50.334;18.640;2022-12-18T05:19:12;67.10;;;27.70;;
67074;SDS011;53990;50.334;18.640;2022-12-18T05:21:39;71.90;;;29.40;;
67074;SDS011;53990;50.334;18.640;2022-12-18T05:24:06;67.10;;;28.50;;
67074;SDS011;53990;50.334;18.640;2022-12-18T05:26:33;75.30;;;30.50;;
67074;SDS011;53990;50.334;18.640;2022-12-18T05:29:01;72.40;;;28.70;;
67074;SDS011;53990;50.334;18.640;2022-12-18T05:31:28;74.40;;;29.30;;
67074;SDS011;53990;50.334;18.640;2022-12-18T05:33:55;76.00;;;29.70;;
67074;SDS011;53990;50.334;18.640;2022-12-18T05:36:23;76.10;;;29.90;;
67074;SDS011;53990;50.334;18.640;2022-12-18T05:38:50;89.40;;;33.80;;
67074;SDS011;53990;50.334;18.640;2022-12-18T05:41:17;77.80;;;32.20;;
67074;SDS011;53990;50.334;18.640;2022-12-18T05:43:44;81.00;;;33.60;;
67074;SDS011;53990;50.334;18.640;2022-12-18T05:46:15;84.00;;;34.30;;
67074;SDS011;53990;50.334;18.640;2022-12-18T05:48:43;81.40;;;33.90;;
67074;SDS011;53990;50.334;18.640;2022-12-18T05:51:14;87.40;;;35.00;;
67074;SDS011;53990;50.334;18.640;2022-12-18T05:53:42;85.50;;;34.70;;
67074;SDS011;53990;50.334;18.640;2022-12-18T05:56:12;86.10;;;35.40;;
67074;SDS011;53990;50.334;18.640;2022-12-18T05:58:39;90.60;;;36.10;;
67074;SDS011;53990;50.334;18.640;2022-12-18T06:01:09;94.90;;;36.80;;
67074;SDS011;53990;50.334;18.640;2022-12-18T06:03:37;96.60;;;38.10;;
67074;SDS011;53990;50.334;18.640;2022-12-18T06:06:11;97.10;;;39.70;;
67074;SDS011;53990;50.334;18.640;2022-12-18T06:08:39;98.70;;;39.20;;
67074;SDS011;53990;50.334;18.640;2022-12-18T06:11:06;102.20;;;42.50;;
67074;SDS011;53990;50.334;18.640;2022-12-18T06:13:33;106.10;;;41.10;;
67074;SDS011;53990;50.334;18.640;2022-12-18T06:16:07;94.70;;;37.90;;
67074;SDS011;53990;50.334;18.640;2022-12-18T06:18:35;97.80;;;39.10;;
67074;SDS011;53990;50.334;18.640;2022-12-18T06:21:02;103.40;;;39.90;;
67074;SDS011;53990;50.334;18.640;2022-12-18T06:23:29;100.00;;;40.90;;
67074;SDS011;53990;50.334;18.640;2022-12-18T06:25:57;112.00;;;43.20;;
67074;SDS011;53990;50.334;18.640;2022-12-18T06:28:24;109.70;;;41.10;;
67074;SDS011;53990;50.334;18.640;2022-12-18T06:30:51;107.80;;;43.10;;
67074;SDS011;53990;50.334;18.640;2022-12-18T06:33:19;123.50;;;48.30;;
67074;SDS011;53990;50.334;18.640;2022-12-18T06:35:47;113.30;;;42.40;;
67074;SDS011;53990;50.334;18.640;2022-12-18T06:38:14;104.70;;;41.00;;
67074;SDS011;53990;50.334;18.640;2022-12-18T06:40:41;109.70;;;41.50;;
67074;SDS011;53990;50.334;18.640;2022-12-18T06:43:08;110.60;;;40.80;;
67074;SDS011;53990;50.334;18.640;2022-12-18T06:45:36;111.60;;;42.90;;
67074;SDS011;53990;50.334;18.640;2022-12-18T06:48:03;99.30;;;41.30;;
67074;SDS011;53990;50.334;18.640;2022-12-18T06:50:30;110.80;;;43.10;;
67074;SDS011;53990;50.334;18.640;2022-12-18T06:52:57;98.40;;;39.70;;
67074;SDS011;53990;50.334;18.640;2022-12-18T06:55:24;111.70;;;43.00;;
67074;SDS011;53990;50.334;18.640;2022-12-18T06:57:52;98.90;;;38.00;;
67074;SDS011;53990;50.334;18.640;2022-12-18T07:00:19;103.70;;;38.40;;
67074;SDS011;53990;50.334;18.640;2022-12-18T07:02:46;105.50;;;39.30;;
67074;SDS011;53990;50.334;18.640;2022-12-18T07:05:14;103.50;;;40.50;;
67074;SDS011;53990;50.334;18.640;2022-12-18T07:07:41;99.60;;;40.20;;
67074;SDS011;53990;50.334;18.640;2022-12-18T07:10:09;109.70;;;40.30;;
67074;SDS011;53990;50.334;18.640;2022-12-18T07:12:36;107.50;;;38.90;;
67074;SDS011;53990;50.334;18.640;2022-12-18T07:15:03;103.00;;;37.90;;
67074;SDS011;53990;50.334;18.640;2022-12-18T07:17:31;109.60;;;38.90;;
67074;SDS011;53990;50.334;18.640;2022-12-18T07:19:58;103.00;;;39.30;;
67074;SDS011;53990;50.334;18.640;2022-12-18T07:22:25;99.10;;;35.70;;
67074;SDS011;53990;50.334;18.640;2022-12-18T07:24:53;118.30;;;43.20;;
67074;SDS011;53990;50.334;18.640;2022-12-18T07:27:20;129.20;;;46.50;;
67074;SDS011;53990;50.334;18.640;2022-12-18T07:29:48;156.60;;;56.80;;
67074;SDS011;53990;50.334;18.640;2022-12-18T07:32:15;115.70;;;43.90;;
67074;SDS011;53990;50.334;18.640;2022-12-18T07:34:42;115.80;;;46.20;;
67074;SDS011;53990;50.334;18.640;2022-12-18T07:37:09;99.60;;;40.10;;
67074;SDS011;53990;50.334;18.640;2022-12-18T07:39:37;114.70;;;44.10;;
67074;SDS011;53990;50.334;18.640;2022-12-18T07:42:07;101.10;;;41.30;;
67074;SDS011;53990;50.334;18.640;2022-12-18T07:44:53;109.50;;;47.30;;
67074;SDS011;53990;50.334;18.640;2022-12-18T07:47:20;166.80;;;68.00;;
67074;SDS011;53990;50.334;18.640;2022-12-18T07:49:47;169.60;;;73.30;;
67074;SDS011;53990;50.334;18.640;2022-12-18T07:52:15;124.50;;;56.00;;
67074;SDS011;53990;50.334;18.640;2022-12-18T07:54:42;105.20;;;48.30;;
67074;SDS011;53990;50.334;18.640;2022-12-18T07:57:09;98.70;;;43.50;;
67074;SDS011;53990;50.334;18.640;2022-12-18T07:59:36;92.30;;;38.00;;
67074;SDS011;53990;50.334;18.640;2022-12-18T08:02:04;103.20;;;41.40;;
67074;SDS011;53990;50.334;18.640;2022-12-18T08:04:31;94.50;;;38.70;;
67074;SDS011;53990;50.334;18.640;2022-12-18T08:06:58;96.20;;;39.80;;
67074;SDS011;53990;50.334;18.640;2022-12-18T08:09:25;100.20;;;38.20;;
67074;SDS011;53990;50.334;18.640;2022-12-18T08:11:53;90.70;;;36.20;;
67074;SDS011;53990;50.334;18.640;2022-12-18T08:14:20;84.40;;;34.00;;
67074;SDS011;53990;50.334;18.640;2022-12-18T08:16:47;83.30;;;35.40;;
67074;SDS011;53990;50.334;18.640;2022-12-18T08:19:14;89.70;;;36.00;;
67074;SDS011;53990;50.334;18.640;2022-12-18T08:21:42;77.80;;;33.30;;
67074;SDS011;53990;50.334;18.640;2022-12-18T08:24:09;77.00;;;31.40;;
67074;SDS011;53990;50.334;18.640;2022-12-18T08:26:37;80.60;;;32.60;;
67074;SDS011;53990;50.334;18.640;2022-12-18T08:29:05;69.10;;;29.60;;
67074;SDS011;53990;50.334;18.640;2022-12-18T08:31:32;77.30;;;31.80;;
67074;SDS011;53990;50.334;18.640;2022-12-18T08:33:59;74.50;;;31.00;;
67074;SDS011;53990;50.334;18.640;2022-12-18T08:36:27;82.90;;;35.90;;
67074;SDS011;53990;50.334;18.640;2022-12-18T08:38:54;78.30;;;32.90;;
67074;SDS011;53990;50.334;18.640;2022-12-18T08:41:22;79.90;;;31.00;;
67074;SDS011;53990;50.334;18.640;2022-12-18T08:43:49;75.20;;;31.10;;
67074;SDS011;53990;50.334;18.640;2022-12-18T08:46:38;78.20;;;32.00;;
67074;SDS011;53990;50.334;18.640;2022-12-18T08:49:07;78.60;;;31.40;;
67074;SDS011;53990;50.334;18.640;2022-12-18T08:51:35;70.90;;;31.50;;
67074;SDS011;53990;50.334;18.640;2022-12-18T08:54:03;73.60;;;30.70;;
67074;SDS011;53990;50.334;18.640;2022-12-18T08:56:31;70.20;;;30.90;;
67074;SDS011;53990;50.334;18.640;2022-12-18T08:58:58;75.60;;;32.00;;
67074;SDS011;53990;50.334;18.640;2022-12-18T09:01:25;70.60;;;32.20;;
67074;SDS011;53990;50.334;18.640;2022-12-18T09:03:53;74.50;;;30.50;;
67074;SDS011;53990;50.334;18.640;2022-12-18T09:06:21;69.80;;;28.40;;
67074;SDS011;53990;50.334;18.640;2022-12-18T09:08:49;66.80;;;28.50;;
67074;SDS011;53990;50.334;18.640;2022-12-18T09:11:25;64.80;;;27.90;;
67074;SDS011;53990;50.334;18.640;2022-12-18T09:13:53;69.80;;;28.90;;
67074;SDS011;53990;50.334;18.640;2022-12-18T09:16:22;64.20;;;29.50;;
67074;SDS011;53990;50.334;18.640;2022-12-18T09:18:50;62.00;;;26.00;;
67074;SDS011;53990;50.334;18.640;2022-12-18T09:21:20;63.90;;;25.80;;
67074;SDS011;53990;50.334;18.640;2022-12-18T09:23:51;59.20;;;25.70;;
67074;SDS011;53990;50.334;18.640;2022-12-18T09:26:20;58.10;;;24.90;;
67074;SDS011;53990;50.334;18.640;2022-12-18T09:28:48;62.30;;;25.90;;
67074;SDS011;53990;50.334;18.640;2022-12-18T09:31:17;58.00;;;25.70;;
67074;SDS011;53990;50.334;18.640;2022-12-18T09:33:44;51.30;;;23.40;;
67074;SDS011;53990;50.334;18.640;2022-12-18T09:36:16;57.70;;;23.40;;
67074;SDS011;53990;50.334;18.640;2022-12-18T09:38:43;54.40;;;22.80;;
67074;SDS011;53990;50.334;18.640;2022-12-18T09:44:13;55.80;;;23.00;;
67074;SDS011;53990;50.334;18.640;2022-12-18T09:46:46;53.40;;;23.00;;
67074;SDS011;53990;50.334;18.640;2022-12-18T09:49:18;50.40;;;22.60;;
67074;SDS011;53990;50.334;18.640;2022-12-18T09:51:50;59.80;;;25.30;;
67074;SDS011;53990;50.334;18.640;2022-12-18T09:54:50;64.40;;;28.20;;
67074;SDS011;53990;50.334;18.640;2022-12-18T09:57:21;57.70;;;27.00;;
67074;SDS011;53990;50.334;18.640;2022-12-18T10:00:02;52.90;;;24.60;;
67074;SDS011;53990;50.334;18.640;2022-12-18T10:02:30;52.20;;;25.00;;
67074;SDS011;53990;50.334;18.640;2022-12-18T10:05:15;56.70;;;25.70;;
67074;SDS011;53990;50.334;18.640;2022-12-18T10:07:49;57.80;;;26.90;;
67074;SDS011;53990;50.334;18.640;2022-12-18T10:10:29;56.30;;;25.60;;
67074;SDS011;53990;50.334;18.640;2022-12-18T10:16:07;58.10;;;24.50;;
67074;SDS011;53990;50.334;18.640;2022-12-18T10:18:57;53.30;;;25.00;;
67074;SDS011;53990;50.334;18.640;2022-12-18T10:21:34;56.70;;;25.80;;
67074;SDS011;53990;50.334;18.640;2022-12-18T10:26:41;54.60;;;24.20;;
67074;SDS011;53990;50.334;18.640;2022-12-18T10:29:12;57.40;;;23.70;;
67074;SDS011;53990;50.334;18.640;2022-12-18T10:31:39;49.10;;;23.00;;
67074;SDS011;53990;50.334;18.640;2022-12-18T10:34:10;54.30;;;25.80;;
67074;SDS011;53990;50.334;18.640;2022-12-18T10:36:37;51.30;;;24.10;;
67074;SDS011;53990;50.334;18.640;2022-12-18T10:39:22;53.90;;;26.40;;
67074;SDS011;53990;50.334;18.640;2022-12-18T10:41:49;59.80;;;26.40;;
67074;SDS011;53990;50.334;18.640;2022-12-18T10:44:21;61.00;;;27.70;;
67074;SDS011;53990;50.334;18.640;2022-12-18T10:46:53;60.80;;;28.30;;
67074;SDS011;53990;50.334;18.640;2022-12-18T10:49:26;57.90;;;27.10;;
67074;SDS011;53990;50.334;18.640;2022-12-18T10:52:20;53.20;;;28.20;;
67074;SDS011;53990;50.334;18.640;2022-12-18T10:54:54;59.50;;;30.10;;
67074;SDS011;53990;50.334;18.640;2022-12-18T10:57:46;57.80;;;29.40;;
67074;SDS011;53990;50.334;18.640;2022-12-18T11:00:28;57.40;;;30.00;;
67074;SDS011;53990;50.334;18.640;2022-12-18T11:02:56;59.60;;;29.40;;
67074;SDS011;53990;50.334;18.640;2022-12-18T11:05:33;58.40;;;28.60;;
67074;SDS011;53990;50.334;18.640;2022-12-18T11:08:03;55.20;;;28.20;;
67074;SDS011;53990;50.334;18.640;2022-12-18T11:10:33;57.90;;;27.90;;
67074;SDS011;53990;50.334;18.640;2022-12-18T11:13:22;60.60;;;30.40;;
67074;SDS011;53990;50.334;18.640;2022-12-18T11:15:51;57.20;;;28.30;;
67074;SDS011;53990;50.334;18.640;2022-12-18T11:18:33;58.20;;;28.70;;
67074;SDS011;53990;50.334;18.640;2022-12-18T11:21:05;58.10;;;29.20;;
67074;SDS011;53990;50.334;18.640;2022-12-18T11:23:34;63.00;;;30.30;;
67074;SDS011;53990;50.334;18.640;2022-12-18T11:26:03;55.00;;;30.90;;
67074;SDS011;53990;50.334;18.640;2022-12-18T11:28:51;60.90;;;32.90;;
67074;SDS011;53990;50.334;18.640;2022-12-18T11:31:27;61.00;;;31.90;;
67074;SDS011;53990;50.334;18.640;2022-12-18T11:36:31;77.20;;;39.60;;
67074;SDS011;53990;50.334;18.640;2022-12-18T11:39:03;71.20;;;36.40;;
67074;SDS011;53990;50.334;18.640;2022-12-18T11:44:50;74.10;;;38.40;;
67074;SDS011;53990;50.334;18.640;2022-12-18T11:49:52;69.40;;;36.30;;
67074;SDS011;53990;50.334;18.640;2022-12-18T11:52:36;65.80;;;36.10;;
67074;SDS011;53990;50.334;18.640;2022-12-18T12:00:30;67.10;;;37.20;;
67074;SDS011;53990;50.334;18.640;2022-12-18T12:09:05;62.00;;;36.90;;
67074;SDS011;53990;50.334;18.640;2022-12-18T12:20:02;66.30;;;37.10;;
67074;SDS011;53990;50.334;18.640;2022-12-18T12:31:22;70.30;;;37.90;;
67074;SDS011;53990;50.334;18.640;2022-12-18T12:34:13;74.20;;;40.60;;
67074;SDS011;53990;50.334;18.640;2022-12-18T12:39:30;76.70;;;40.80;;
67074;SDS011;53990;50.334;18.640;2022-12-18T12:41:59;80.70;;;41.20;;
67074;SDS011;53990;50.334;18.640;2022-12-18T12:44:51;75.10;;;39.30;;
67074;SDS011;53990;50.334;18.640;2022-12-18T12:47:24;82.40;;;42.50;;
67074;SDS011;53990;50.334;18.640;2022-12-18T12:49:53;77.80;;;41.60;;
67074;SDS011;53990;50.334;18.640;2022-12-18T12:52:48;82.70;;;41.90;;
67074;SDS011;53990;50.334;18.640;2022-12-18T12:55:24;81.40;;;42.10;;
67074;SDS011;53990;50.334;18.640;2022-12-18T13:06:04;81.50;;;42.20;;
67074;SDS011;53990;50.334;18.640;2022-12-18T13:08:56;78.10;;;41.70;;
67074;SDS011;53990;50.334;18.640;2022-12-18T13:11:44;81.90;;;41.00;;
67074;SDS011;53990;50.334;18.640;2022-12-18T13:14:38;83.10;;;42.50;;
67074;SDS011;53990;50.334;18.640;2022-12-18T13:20:13;85.70;;;42.00;;
67074;SDS011;53990;50.334;18.640;2022-12-18T13:22:46;83.70;;;42.80;;
67074;SDS011;53990;50.334;18.640;2022-12-18T13:25:35;87.80;;;42.50;;
67074;SDS011;53990;50.334;18.640;2022-12-18T13:28:09;90.70;;;43.60;;
67074;SDS011;53990;50.334;18.640;2022-12-18T13:41:02;85.40;;;41.80;;
67074;SDS011;53990;50.334;18.640;2022-12-18T13:43:33;85.10;;;41.10;;
67074;SDS011;53990;50.334;18.640;2022-12-18T13:46:18;92.40;;;43.20;;
67074;SDS011;53990;50.334;18.640;2022-12-18T13:51:45;96.10;;;45.10;;
67074;SDS011;53990;50.334;18.640;2022-12-18T13:56:59;99.90;;;48.10;;
67074;SDS011;53990;50.334;18.640;2022-12-18T13:59:39;103.60;;;49.10;;
67074;SDS011;53990;50.334;18.640;2022-12-18T14:02:19;97.30;;;49.00;;
67074;SDS011;53990;50.334;18.640;2022-12-18T14:04:48;106.70;;;51.20;;
67074;SDS011;53990;50.334;18.640;2022-12-18T14:07:27;95.90;;;44.50;;
67074;SDS011;53990;50.334;18.640;2022-12-18T14:09:56;100.30;;;47.40;;
67074;SDS011;53990;50.334;18.640;2022-12-18T14:12:26;93.90;;;42.20;;
67074;SDS011;53990;50.334;18.640;2022-12-18T14:18:03;103.00;;;45.80;;
67074;SDS011;53990;50.334;18.640;2022-12-18T14:20:43;101.60;;;46.50;;
67074;SDS011;53990;50.334;18.640;2022-12-18T14:23:35;94.90;;;43.10;;
67074;SDS011;53990;50.334;18.640;2022-12-18T14:26:25;97.80;;;44.90;;
67074;SDS011;53990;50.334;18.640;2022-12-18T14:28:56;92.10;;;42.50;;
67074;SDS011;53990;50.334;18.640;2022-12-18T14:31:26;96.60;;;44.50;;
67074;SDS011;53990;50.334;18.640;2022-12-18T14:33:54;93.40;;;45.50;;
67074;SDS011;53990;50.334;18.640;2022-12-18T14:36:27;98.30;;;45.00;;
67074;SDS011;53990;50.334;18.640;2022-12-18T14:38:56;98.60;;;45.80;;
67074;SDS011;53990;50.334;18.640;2022-12-18T14:41:25;96.30;;;43.50;;
67074;SDS011;53990;50.334;18.640;2022-12-18T14:43:54;87.20;;;41.10;;
67074;SDS011;53990;50.334;18.640;2022-12-18T14:51:51;91.00;;;40.60;;
67074;SDS011;53990;50.334;18.640;2022-12-18T14:54:20;87.80;;;40.90;;
67074;SDS011;53990;50.334;18.640;2022-12-18T14:59:26;87.70;;;40.90;;
67074;SDS011;53990;50.334;18.640;2022-12-18T15:02:18;91.90;;;41.10;;
67074;SDS011;53990;50.334;18.640;2022-12-18T15:04:46;91.50;;;41.90;;
67074;SDS011;53990;50.334;18.640;2022-12-18T15:07:19;93.00;;;41.00;;
67074;SDS011;53990;50.334;18.640;2022-12-18T15:12:35;88.10;;;40.60;;
67074;SDS011;53990;50.334;18.640;2022-12-18T15:15:04;92.20;;;41.70;;
67074;SDS011;53990;50.334;18.640;2022-12-18T15:17:31;99.80;;;41.90;;
67074;SDS011;53990;50.334;18.640;2022-12-18T15:20:09;95.50;;;42.10;;
67074;SDS011;53990;50.334;18.640;2022-12-18T15:22:37;100.10;;;41.80;;
67074;SDS011;53990;50.334;18.640;2022-12-18T15:25:27;96.30;;;41.40;;
67074;SDS011;53990;50.334;18.640;2022-12-18T15:27:57;97.00;;;42.10;;
67074;SDS011;53990;50.334;18.640;2022-12-18T15:30:25;105.50;;;46.10;;
67074;SDS011;53990;50.334;18.640;2022-12-18T15:33:16;95.60;;;41.20;;
67074;SDS011;53990;50.334;18.640;2022-12-18T15:35:45;108.50;;;44.30;;
67074;SDS011;53990;50.334;18.640;2022-12-18T15:38:12;99.70;;;42.00;;
67074;SDS011;53990;50.334;18.640;2022-12-18T15:40:39;108.10;;;47.40;;
67074;SDS011;53990;50.334;18.640;2022-12-18T15:43:08;105.40;;;45.60;;
67074;SDS011;53990;50.334;18.640;2022-12-18T15:45:54;111.50;;;44.50;;
67074;SDS011;53990;50.334;18.640;2022-12-18T15:48:22;108.60;;;44.40;;
67074;SDS011;53990;50.334;18.640;2022-12-18T15:50:50;105.00;;;44.60;;
67074;SDS011;53990;50.334;18.640;2022-12-18T15:53:18;105.80;;;45.10;;
67074;SDS011;53990;50.334;18.640;2022-12-18T15:55:51;108.00;;;46.90;;
67074;SDS011;53990;50.334;18.640;2022-12-18T15:58:37;111.60;;;48.20;;
67074;SDS011;53990;50.334;18.640;2022-12-18T16:01:09;109.20;;;48.30;;
67074;SDS011;53990;50.334;18.640;2022-12-18T16:03:41;110.50;;;45.40;;
67074;SDS011;53990;50.334;18.640;2022-12-18T16:06:10;110.70;;;45.90;;
67074;SDS011;53990;50.334;18.640;2022-12-18T16:08:42;117.10;;;48.30;;
67074;SDS011;53990;50.334;18.640;2022-12-18T16:11:30;112.40;;;48.10;;
67074;SDS011;53990;50.334;18.640;2022-12-18T16:14:20;103.40;;;44.00;;
67074;SDS011;53990;50.334;18.640;2022-12-18T16:16:50;104.40;;;45.20;;
67074;SDS011;53990;50.334;18.640;2022-12-18T16:19:18;114.20;;;46.90;;
67074;SDS011;53990;50.334;18.640;2022-12-18T16:21:51;113.20;;;48.50;;
67074;SDS011;53990;50.334;18.640;2022-12-18T16:24:29;115.10;;;49.40;;
67074;SDS011;53990;50.334;18.640;2022-12-18T16:26:58;116.70;;;48.50;;
67074;SDS011;53990;50.334;18.640;2022-12-18T16:29:27;103.80;;;43.30;;
67074;SDS011;53990;50.334;18.640;2022-12-18T16:32:00;109.00;;;45.80;;
67074;SDS011;53990;50.334;18.640;2022-12-18T16:34:29;119.90;;;50.10;;
67074;SDS011;53990;50.334;18.640;2022-12-18T16:36:59;127.20;;;54.80;;